createdAt,value
2023-02-01T00:01:10.391Z,79.19
2023-02-01T00:03:37.977Z,79.21
2023-02-01T00:06:05.422Z,79.18
2023-02-01T00:08:33.751Z,78.62
2023-02-01T00:11:02.299Z,79.29
2023-02-01T00:13:31.616Z,79.46
2023-02-01T00:16:30.477Z,78.91
2023-02-01T00:19:08.402Z,79.48
2023-02-01T00:21:35.453Z,79.75
2023-02-01T00:24:03.062Z,78.70
2023-02-01T00:26:36.874Z,78.88
2023-02-01T00:29:08.147Z,79.09
2023-02-01T00:31:35.603Z,78.86
2023-02-01T00:34:02.665Z,78.92
2023-02-01T00:36:30.310Z,78.85
2023-02-01T00:38:57.670Z,78.79
2023-02-01T00:41:26.728Z,79.54
2023-02-01T00:43:53.842Z,78.85
2023-02-01T00:46:22.600Z,78.87
2023-02-01T00:48:50.367Z,79.09
2023-02-01T00:51:22.993Z,78.69
2023-02-01T00:53:50.940Z,78.81
2023-02-01T00:56:18.269Z,78.66
2023-02-01T00:58:45.995Z,79.00
2023-02-01T01:01:26.896Z,79.14
2023-02-01T01:03:59.230Z,78.63
2023-02-01T01:06:30.296Z,78.25
2023-02-01T01:09:00.517Z,79.23
2023-02-01T01:11:31.963Z,78.56
2023-02-01T01:14:01.226Z,78.80
2023-02-01T01:16:31.419Z,78.87
2023-02-01T01:18:59.269Z,79.01
2023-02-01T01:21:27.267Z,78.46
2023-02-01T01:23:55.080Z,78.97
2023-02-01T01:26:26.366Z,78.78
2023-02-01T01:28:56.672Z,78.90
2023-02-01T01:31:24.793Z,79.06
2023-02-01T01:33:55.036Z,78.69
2023-02-01T01:36:22.863Z,78.52
2023-02-01T01:38:50.260Z,79.24
2023-02-01T01:41:31.699Z,78.71
2023-02-01T01:44:45.533Z,79.13
2023-02-01T01:47:13.193Z,79.30
2023-02-01T01:49:40.589Z,79.00
2023-02-01T01:52:09.032Z,79.65
2023-02-01T01:54:42.596Z,79.29
2023-02-01T01:57:19.527Z,79.42
2023-02-01T01:59:55.073Z,79.27
2023-02-01T02:02:22.680Z,79.50
2023-02-01T02:04:50.110Z,78.95
2023-02-01T02:07:24.133Z,79.39
2023-02-01T02:10:00.557Z,79.36
2023-02-01T02:12:28.996Z,79.50
2023-02-01T02:14:56.877Z,79.34
2023-02-01T02:17:41.047Z,79.91
2023-02-01T02:21:02.561Z,79.32
2023-02-01T02:24:14.411Z,79.08
2023-02-01T02:27:24.031Z,79.36
2023-02-01T02:30:46.158Z,80.31
2023-02-01T02:33:33.757Z,79.58
2023-02-01T02:36:49.667Z,79.68
2023-02-01T02:39:29.900Z,80.09
2023-02-01T02:42:35.955Z,80.32
2023-02-01T02:45:37.079Z,80.74
2023-02-01T02:48:21.224Z,80.48
2023-02-01T02:51:24.228Z,80.76
2023-02-01T02:54:47.450Z,80.51
2023-02-01T02:57:54.602Z,80.31
2023-02-01T03:00:47.698Z,80.49
2023-02-01T03:03:33.818Z,80.13
2023-02-01T03:06:01.748Z,80.41
2023-02-01T03:08:32.448Z,80.07
2023-02-01T03:11:15.401Z,80.50
2023-02-01T03:13:48.250Z,80.31
2023-02-01T03:16:27.453Z,80.00
2023-02-01T03:19:04.832Z,80.22
2023-02-01T03:21:46.242Z,79.88
2023-02-01T03:24:54.880Z,80.07
2023-02-01T03:27:29.304Z,79.88
2023-02-01T03:30:23.059Z,80.23
2023-02-01T03:33:01.286Z,79.77
2023-02-01T03:35:41.962Z,79.88
2023-02-01T03:38:34.281Z,79.89
2023-02-01T03:41:20.215Z,79.71
2023-02-01T03:44:30.643Z,79.83
2023-02-01T03:47:05.394Z,79.44
2023-02-01T03:49:38.159Z,79.34
2023-02-01T03:52:12.152Z,79.75
2023-02-01T03:54:39.800Z,79.50
2023-02-01T03:57:14.824Z,79.79
2023-02-01T03:59:43.743Z,79.81
2023-02-01T04:02:11.275Z,79.78
2023-02-01T04:04:38.815Z,80.05
2023-02-01T04:07:06.325Z,80.12
2023-02-01T04:09:33.236Z,79.92
2023-02-01T04:12:00.207Z,79.57
2023-02-01T04:14:27.282Z,79.31
2023-02-01T04:16:54.328Z,79.79
2023-02-01T04:19:21.419Z,79.73
2023-02-01T04:21:48.378Z,79.98
2023-02-01T04:24:15.360Z,79.64
2023-02-01T04:26:42.386Z,79.37
2023-02-01T04:29:11.255Z,79.56
2023-02-01T04:31:38.643Z,79.96
2023-02-01T04:34:05.688Z,80.25
2023-02-01T04:36:32.784Z,79.80
2023-02-01T04:39:00.307Z,79.80
2023-02-01T04:41:27.712Z,79.97
2023-02-01T04:43:54.665Z,80.00
2023-02-01T04:46:21.634Z,80.33
2023-02-01T04:48:48.568Z,79.82
2023-02-01T04:51:16.291Z,79.96
2023-02-01T04:53:43.299Z,79.78
2023-02-01T04:56:10.391Z,79.42
2023-02-01T04:58:37.734Z,79.43
2023-02-01T05:01:06.683Z,79.38
2023-02-01T05:03:34.687Z,79.28
2023-02-01T05:06:02.020Z,78.81
2023-02-01T05:08:29.863Z,78.94
2023-02-01T05:10:56.908Z,79.47
2023-02-01T05:13:42.583Z,80.41
2023-02-01T05:16:09.753Z,80.36
2023-02-01T05:18:36.795Z,80.67
2023-02-01T05:21:04.254Z,80.36
2023-02-01T05:23:31.781Z,80.15
2023-02-01T05:26:02.776Z,80.77
2023-02-01T05:28:29.795Z,80.10
2023-02-01T05:30:56.793Z,80.14
2023-02-01T05:33:24.051Z,80.20
2023-02-01T05:35:51.594Z,79.66
2023-02-01T05:38:18.581Z,79.86
2023-02-01T05:40:50.758Z,80.77
2023-02-01T05:43:17.873Z,79.98
2023-02-01T05:45:44.868Z,80.03
2023-02-01T05:48:11.984Z,79.93
2023-02-01T05:50:39.173Z,80.15
2023-02-01T05:53:09.632Z,79.54
2023-02-01T05:55:37.995Z,79.45
2023-02-01T05:58:05.998Z,79.85
2023-02-01T06:00:33.469Z,79.74
2023-02-01T06:03:00.491Z,79.91
2023-02-01T06:05:27.489Z,79.63
2023-02-01T06:07:54.888Z,79.51
2023-02-01T06:10:22.517Z,80.34
2023-02-01T06:12:49.904Z,79.72
2023-02-01T06:15:17.516Z,79.62
2023-02-01T06:17:47.944Z,79.49
2023-02-01T06:20:16.924Z,79.60
2023-02-01T06:22:43.950Z,79.52
2023-02-01T06:25:11.875Z,79.30
2023-02-01T06:27:39.445Z,79.35
2023-02-01T06:30:08.058Z,79.51
2023-02-01T06:32:36.904Z,79.50
2023-02-01T06:35:04.141Z,80.01
2023-02-01T06:37:31.211Z,79.56
2023-02-01T06:39:58.276Z,79.42
2023-02-01T06:42:25.293Z,80.16
2023-02-01T06:44:52.558Z,79.35
2023-02-01T06:47:19.439Z,79.96
2023-02-01T06:49:46.366Z,80.03
2023-02-01T06:52:13.296Z,80.26
2023-02-01T06:54:40.212Z,80.39
2023-02-01T06:57:07.109Z,80.22
2023-02-01T06:59:34.003Z,80.09
2023-02-01T07:02:01.236Z,80.52
2023-02-01T07:04:28.135Z,80.72
2023-02-01T07:06:55.109Z,80.76
2023-02-01T07:09:22.271Z,80.91
2023-02-01T07:11:49.257Z,80.67
2023-02-01T07:14:16.245Z,81.16
2023-02-01T07:16:43.911Z,81.13
2023-02-01T07:19:11.308Z,81.09
2023-02-01T07:21:38.460Z,81.66
2023-02-01T07:24:06.125Z,81.08
2023-02-01T07:26:33.529Z,81.40
2023-02-01T07:29:01.021Z,81.33
2023-02-01T07:31:29.990Z,81.58
2023-02-01T07:33:58.648Z,81.78
2023-02-01T07:36:25.904Z,82.21
2023-02-01T07:38:56.157Z,82.73
2023-02-01T07:41:23.547Z,82.58
2023-02-01T07:43:54.103Z,82.83
2023-02-01T07:46:21.515Z,83.23
2023-02-01T07:48:48.468Z,83.78
2023-02-01T07:51:17.964Z,83.19
2023-02-01T07:53:46.210Z,84.34
2023-02-01T07:56:19.861Z,84.28
2023-02-01T07:58:52.465Z,84.33
2023-02-01T08:01:26.731Z,84.23
2023-02-01T08:04:05.069Z,84.70
2023-02-01T08:06:35.596Z,85.17
2023-02-01T08:09:04.485Z,84.91
2023-02-01T08:11:32.298Z,85.22
2023-02-01T08:14:00.661Z,85.20
2023-02-01T08:16:28.435Z,85.44
2023-02-01T08:18:56.014Z,85.39
2023-02-01T08:21:26.995Z,85.90
2023-02-01T08:23:54.271Z,86.29
2023-02-01T08:26:25.223Z,86.16
2023-02-01T08:28:59.312Z,87.25
2023-02-01T08:31:29.051Z,87.33
2023-02-01T08:33:59.705Z,87.96
2023-02-01T08:36:29.371Z,88.51
2023-02-01T08:38:56.880Z,87.53
2023-02-01T08:41:27.360Z,87.41
2023-02-01T08:43:55.330Z,87.96
2023-02-01T08:46:23.737Z,88.79
2023-02-01T08:48:51.796Z,88.52
2023-02-01T08:51:22.462Z,88.45
2023-02-01T08:53:50.410Z,88.92
2023-02-01T08:56:19.787Z,88.53
2023-02-01T08:58:46.908Z,88.68
2023-02-01T09:01:18.110Z,89.19
2023-02-01T09:03:45.847Z,89.29
2023-02-01T09:06:15.918Z,88.90
2023-02-01T09:08:44.542Z,89.29
2023-02-01T09:11:16.345Z,88.69
2023-02-01T09:13:44.678Z,89.36
2023-02-01T09:16:12.769Z,89.03
2023-02-01T09:18:50.441Z,88.59
2023-02-01T09:21:24.014Z,88.31
2023-02-01T09:23:54.231Z,89.09
2023-02-01T09:26:26.569Z,88.49
2023-02-01T09:28:57.711Z,87.89
2023-02-01T09:31:27.512Z,88.18
2023-02-01T09:33:54.625Z,88.10
2023-02-01T09:36:21.761Z,88.33
2023-02-01T09:38:52.782Z,88.75
2023-02-01T09:41:27.338Z,89.31
2023-02-01T09:44:19.437Z,87.82
2023-02-01T09:46:47.198Z,88.52
2023-02-01T09:49:20.955Z,88.49
2023-02-01T09:51:51.200Z,88.31
2023-02-01T09:54:20.789Z,88.08
2023-02-01T09:56:53.531Z,88.63
2023-02-01T09:59:43.230Z,87.05
2023-02-01T10:02:19.418Z,88.16
2023-02-01T10:04:48.672Z,87.37
2023-02-01T10:07:29.379Z,87.22
2023-02-01T10:10:25.844Z,87.49
2023-02-01T10:13:12.147Z,87.89
2023-02-01T10:15:56.222Z,88.10
2023-02-01T10:19:05.346Z,86.86
2023-02-01T10:21:50.021Z,87.65
2023-02-01T10:24:37.348Z,87.38
2023-02-01T10:27:17.311Z,87.54
2023-02-01T10:29:49.491Z,87.10
2023-02-01T10:32:21.796Z,86.57
2023-02-01T10:35:11.148Z,86.92
2023-02-01T10:37:38.190Z,85.82
2023-02-01T10:40:26.885Z,87.21
2023-02-01T10:43:00.140Z,86.62
2023-02-01T10:45:33.679Z,86.91
2023-02-01T10:48:03.661Z,85.52
2023-02-01T10:50:51.005Z,85.62
2023-02-01T10:53:38.270Z,85.26
2023-02-01T10:56:14.399Z,85.25
2023-02-01T10:58:48.251Z,84.98
2023-02-01T11:01:25.768Z,84.93
2023-02-01T11:03:55.670Z,84.13
2023-02-01T11:06:32.653Z,84.07
2023-02-01T11:09:25.190Z,83.83
2023-02-01T11:11:52.217Z,83.41
2023-02-01T11:14:25.095Z,83.67
2023-02-01T11:17:15.423Z,82.51
2023-02-01T11:19:57.593Z,82.91
2023-02-01T11:22:29.164Z,82.41
2023-02-01T11:24:58.178Z,82.47
2023-02-01T11:27:28.168Z,81.87
2023-02-01T11:30:02.901Z,82.31
2023-02-01T11:32:31.791Z,82.35
2023-02-01T11:35:04.064Z,81.81
2023-02-01T11:37:39.801Z,80.96
2023-02-01T11:40:31.058Z,81.77
2023-02-01T11:43:25.794Z,80.35
2023-02-01T11:46:00.823Z,80.42
2023-02-01T11:48:32.204Z,80.59
2023-02-01T11:51:38.867Z,79.96
2023-02-01T11:54:45.133Z,80.37
2023-02-01T11:57:27.065Z,80.21
2023-02-01T11:59:56.807Z,79.31
2023-02-01T12:02:46.446Z,79.58
2023-02-01T12:05:42.003Z,79.39
2023-02-01T12:08:34.106Z,79.44
2023-02-01T12:11:36.400Z,79.02
2023-02-01T12:14:48.045Z,78.84
2023-02-01T12:18:03.649Z,78.88
2023-02-01T12:20:57.974Z,78.52
2023-02-01T12:23:47.519Z,78.29
2023-02-01T12:26:51.621Z,78.23
2023-02-01T12:29:30.798Z,77.60
2023-02-01T12:32:30.063Z,77.31
2023-02-01T12:35:22.738Z,77.17
2023-02-01T12:38:23.299Z,77.25
2023-02-01T12:41:08.376Z,76.67
2023-02-01T12:44:01.156Z,76.51
2023-02-01T12:46:34.177Z,76.78
2023-02-01T12:49:26.413Z,76.83
2023-02-01T12:52:04.072Z,76.11
2023-02-01T12:54:37.279Z,76.18
2023-02-01T12:57:14.058Z,75.45
2023-02-01T12:59:50.149Z,75.27
2023-02-01T13:02:39.092Z,74.62
2023-02-01T13:05:22.343Z,74.52
2023-02-01T13:07:59.689Z,74.41
2023-02-01T13:10:54.026Z,74.06
2023-02-01T13:13:46.024Z,74.28
2023-02-01T13:16:44.040Z,74.43
2023-02-01T13:19:24.143Z,74.37
2023-02-01T13:22:03.194Z,73.91
2023-02-01T13:24:43.422Z,73.53
2023-02-01T13:27:15.978Z,73.76
2023-02-01T13:29:53.612Z,74.69
2023-02-01T13:33:37.311Z,73.21
2023-02-01T13:35:47.181Z,73.88
2023-02-01T13:38:49.876Z,73.23
2023-02-01T13:41:31.635Z,72.74
2023-02-01T13:44:20.711Z,73.33
2023-02-01T13:46:48.699Z,73.50
2023-02-01T13:49:24.700Z,73.13
2023-02-01T13:51:57.623Z,73.48
2023-02-01T13:54:38.405Z,73.79
2023-02-01T13:57:29.559Z,73.10
2023-02-01T14:00:54.257Z,72.94
2023-02-01T14:03:47.489Z,72.77
2023-02-01T14:06:45.874Z,73.73
2023-02-01T14:09:20.603Z,73.16
2023-02-01T14:11:56.094Z,72.95
2023-02-01T14:14:24.763Z,73.35
2023-02-01T14:16:54.431Z,72.67
2023-02-01T14:19:33.337Z,73.02
2023-02-01T14:22:34.511Z,72.98
2023-02-01T14:25:01.607Z,73.79
2023-02-01T14:27:36.420Z,72.95
2023-02-01T14:30:09.255Z,73.78
2023-02-01T14:32:39.473Z,72.92
2023-02-01T14:35:27.428Z,73.33
2023-02-01T14:38:03.714Z,73.48
2023-02-01T14:40:32.533Z,72.71
2023-02-01T14:43:00.113Z,73.07
2023-02-01T14:45:28.667Z,73.62
2023-02-01T14:48:16.736Z,73.97
2023-02-01T14:50:47.827Z,73.84
2023-02-01T14:53:24.525Z,73.27
2023-02-01T14:56:07.197Z,73.14
2023-02-01T14:58:49.873Z,73.84
2023-02-01T15:01:32.021Z,73.17
2023-02-01T15:04:19.672Z,74.01
2023-02-01T15:06:57.662Z,74.50
2023-02-01T15:09:38.846Z,74.02
2023-02-01T15:12:09.803Z,74.35
2023-02-01T15:14:43.801Z,74.28
2023-02-01T15:17:28.622Z,74.78
2023-02-01T15:20:22.254Z,75.22
2023-02-01T15:23:02.820Z,74.98
2023-02-01T15:25:40.063Z,74.61
2023-02-01T15:28:16.307Z,74.89
2023-02-01T15:31:02.424Z,75.43
2023-02-01T15:33:31.994Z,75.64
2023-02-01T15:36:16.148Z,75.75
2023-02-01T15:38:44.764Z,76.11
2023-02-01T15:41:23.098Z,76.32
2023-02-01T15:44:13.848Z,77.10
2023-02-01T15:46:45.735Z,77.24
2023-02-01T15:49:33.121Z,77.15
2023-02-01T15:52:03.036Z,77.75
2023-02-01T15:54:50.889Z,78.02
2023-02-01T15:57:36.765Z,77.85
2023-02-01T16:00:28.685Z,78.39
2023-02-01T16:02:59.581Z,78.60
2023-02-01T16:05:40.901Z,79.15
2023-02-01T16:08:26.127Z,78.71
2023-02-01T16:11:02.892Z,79.17
2023-02-01T16:13:29.935Z,79.58
2023-02-01T16:15:56.908Z,79.14
2023-02-01T16:18:23.975Z,79.50
2023-02-01T16:20:50.997Z,79.39
2023-02-01T16:23:18.106Z,78.87
2023-02-01T16:25:45.342Z,78.82
2023-02-01T16:28:12.287Z,79.42
2023-02-01T16:30:39.762Z,79.53
2023-02-01T16:33:16.006Z,79.49
2023-02-01T16:35:43.024Z,79.27
2023-02-01T16:38:14.036Z,79.79
2023-02-01T16:40:44.752Z,79.60
2023-02-01T16:43:18.622Z,79.89
2023-02-01T16:45:50.976Z,79.59
2023-02-01T16:48:30.740Z,79.73
2023-02-01T16:51:07.761Z,79.43
2023-02-01T16:53:48.323Z,79.53
2023-02-01T16:56:26.034Z,80.10
2023-02-01T16:58:55.236Z,79.79
2023-02-01T17:01:22.722Z,79.41
2023-02-01T17:03:51.039Z,80.20
2023-02-01T17:06:22.097Z,79.85
2023-02-01T17:08:53.329Z,79.89
2023-02-01T17:11:20.330Z,80.32
2023-02-01T17:13:48.051Z,80.09
2023-02-01T17:16:32.459Z,79.90
2023-02-01T17:19:13.962Z,80.36
2023-02-01T17:21:46.167Z,79.71
2023-02-01T17:24:17.993Z,79.65
2023-02-01T17:26:46.321Z,79.53
2023-02-01T17:29:14.419Z,79.26
2023-02-01T17:31:46.475Z,79.33
2023-02-01T17:34:15.954Z,79.20
2023-02-01T17:36:44.156Z,79.06
2023-02-01T17:39:32.071Z,79.62
2023-02-01T17:42:00.945Z,79.23
2023-02-01T17:44:28.526Z,79.32
2023-02-01T17:46:57.352Z,78.88
2023-02-01T17:49:24.493Z,79.34
2023-02-01T17:51:51.771Z,79.72
2023-02-01T17:54:20.180Z,80.02
2023-02-01T17:56:50.336Z,81.04
2023-02-01T17:59:17.794Z,80.95
2023-02-01T18:01:44.981Z,81.24
2023-02-01T18:04:19.378Z,80.67
2023-02-01T18:06:46.367Z,80.78
2023-02-01T18:09:13.275Z,81.54
2023-02-01T18:11:41.524Z,81.33
2023-02-01T18:14:15.554Z,81.68
2023-02-01T18:16:42.562Z,82.17
2023-02-01T18:19:09.650Z,82.28
2023-02-01T18:21:44.241Z,82.94
2023-02-01T18:24:16.170Z,82.61
2023-02-01T18:26:44.167Z,82.56
2023-02-01T18:29:11.423Z,82.24
2023-02-01T18:31:47.415Z,82.48
2023-02-01T18:34:21.331Z,82.85
2023-02-01T18:36:51.753Z,82.53
2023-02-01T18:39:18.873Z,81.81
2023-02-01T18:41:48.761Z,81.99
2023-02-01T18:44:17.528Z,81.65
2023-02-01T18:46:44.711Z,82.47
2023-02-01T18:49:14.214Z,82.33
2023-02-01T18:51:43.333Z,81.85
2023-02-01T18:54:12.341Z,81.93
2023-02-01T18:56:39.883Z,81.78
2023-02-01T18:59:07.283Z,82.31
2023-02-01T19:01:35.010Z,81.84
2023-02-01T19:04:12.822Z,81.58
2023-02-01T19:06:45.426Z,82.02
2023-02-01T19:09:12.343Z,81.96
2023-02-01T19:11:39.235Z,81.02
2023-02-01T19:14:07.136Z,80.91
2023-02-01T19:16:38.465Z,80.95
2023-02-01T19:19:05.654Z,81.12
2023-02-01T19:21:33.531Z,80.42
2023-02-01T19:24:00.738Z,80.74
2023-02-01T19:26:27.750Z,81.07
2023-02-01T19:28:54.604Z,80.83
2023-02-01T19:31:21.616Z,81.38
2023-02-01T19:33:48.677Z,81.41
2023-02-01T19:36:15.536Z,81.58
2023-02-01T19:38:42.506Z,81.59
2023-02-01T19:41:09.479Z,82.21
2023-02-01T19:43:37.011Z,81.69
2023-02-01T19:46:04.467Z,81.13
2023-02-01T19:48:31.911Z,80.91
2023-02-01T19:50:59.393Z,81.36
2023-02-01T19:53:28.385Z,80.60
2023-02-01T19:55:57.313Z,80.88
2023-02-01T19:58:26.055Z,80.78
2023-02-01T20:00:57.627Z,80.33
2023-02-01T20:03:26.490Z,80.02
2023-02-01T20:05:56.242Z,79.65
2023-02-01T20:08:23.279Z,79.81
2023-02-01T20:10:50.228Z,79.86
2023-02-01T20:13:17.684Z,79.65
2023-02-01T20:15:45.020Z,80.10
2023-02-01T20:18:12.252Z,81.11
2023-02-01T20:20:41.793Z,80.96
2023-02-01T20:23:09.139Z,80.45
2023-02-01T20:25:38.060Z,81.57
2023-02-01T20:28:05.359Z,81.55
2023-02-01T20:30:32.532Z,82.70
2023-02-01T20:32:59.649Z,82.25
2023-02-01T20:35:26.964Z,82.15
2023-02-01T20:37:54.397Z,82.69
2023-02-01T20:40:21.640Z,82.16
2023-02-01T20:42:48.857Z,82.42
2023-02-01T20:45:16.742Z,82.05
2023-02-01T20:47:43.940Z,82.43
2023-02-01T20:50:11.872Z,82.09
2023-02-01T20:52:38.878Z,82.55
2023-02-01T20:55:06.575Z,82.72
2023-02-01T20:57:33.750Z,82.52
2023-02-01T21:00:00.893Z,82.38
2023-02-01T21:02:28.090Z,82.71
2023-02-01T21:04:55.193Z,82.70
2023-02-01T21:07:22.186Z,82.62
2023-02-01T21:09:49.045Z,81.55
2023-02-01T21:12:16.056Z,81.52
2023-02-01T21:14:43.035Z,81.52
2023-02-01T21:17:09.982Z,82.18
2023-02-01T21:19:43.467Z,82.84
2023-02-01T21:22:15.367Z,82.56
2023-02-01T21:24:43.427Z,82.88
2023-02-01T21:27:11.179Z,82.35
2023-02-01T21:29:38.610Z,83.10
2023-02-01T21:32:07.635Z,82.57
2023-02-01T21:34:35.887Z,83.46
2023-02-01T21:37:03.483Z,83.91
2023-02-01T21:39:30.559Z,84.14
2023-02-01T21:42:17.487Z,84.01
2023-02-01T21:44:48.591Z,83.67
2023-02-01T21:47:18.943Z,83.74
2023-02-01T21:49:49.321Z,84.03
2023-02-01T21:52:17.691Z,83.66
2023-02-01T21:54:45.079Z,83.96
2023-02-01T21:57:12.732Z,83.97
2023-02-01T21:59:42.220Z,84.44
2023-02-01T22:02:16.340Z,83.36
2023-02-01T22:04:44.164Z,83.62
2023-02-01T22:07:12.293Z,82.97
2023-02-01T22:09:40.496Z,84.03
2023-02-01T22:12:08.865Z,83.71
2023-02-01T22:14:35.920Z,83.59
2023-02-01T22:17:03.603Z,83.71
2023-02-01T22:19:30.724Z,83.71
2023-02-01T22:21:57.631Z,83.84
2023-02-01T22:24:25.000Z,83.81
2023-02-01T22:26:52.000Z,83.88
2023-02-01T22:29:23.727Z,84.20
2023-02-01T22:31:50.881Z,84.33
2023-02-01T22:34:22.219Z,84.66
2023-02-01T22:36:50.002Z,85.37
2023-02-01T22:39:17.128Z,84.94
2023-02-01T22:41:44.059Z,84.45
2023-02-01T22:44:10.994Z,84.08
2023-02-01T22:46:38.271Z,85.03
2023-02-01T22:49:05.299Z,85.18
2023-02-01T22:51:33.165Z,84.59
2023-02-01T22:54:00.752Z,83.75
2023-02-01T22:56:33.767Z,84.45
2023-02-01T22:59:07.422Z,84.90
2023-02-01T23:01:35.566Z,84.67
2023-02-01T23:04:08.475Z,84.50
2023-02-01T23:06:36.015Z,84.87
2023-02-01T23:09:15.863Z,83.89
2023-02-01T23:11:43.695Z,83.87
2023-02-01T23:14:12.629Z,83.74
2023-02-01T23:16:41.013Z,83.27
2023-02-01T23:19:08.240Z,83.59
2023-02-01T23:21:35.640Z,84.16
2023-02-01T23:24:04.805Z,83.94
2023-02-01T23:26:32.360Z,83.63
2023-02-01T23:29:00.576Z,84.13
2023-02-01T23:31:31.228Z,84.00
2023-02-01T23:34:00.477Z,83.61
2023-02-01T23:36:29.330Z,83.88
2023-02-01T23:38:57.420Z,83.68
2023-02-01T23:41:24.862Z,83.94
2023-02-01T23:43:57.937Z,83.71
2023-02-01T23:46:26.218Z,84.00
2023-02-01T23:48:54.122Z,84.32
2023-02-01T23:51:22.723Z,83.57
2023-02-01T23:53:50.614Z,84.22
2023-02-01T23:56:34.139Z,83.88
2023-02-01T23:59:17.286Z,84.83
